createdAt,value
2023-04-27T00:01:25.512Z,101868.01
2023-04-27T00:04:55.258Z,101868.43
2023-04-27T00:08:24.634Z,101866.73
2023-04-27T00:11:54.151Z,101862.36
2023-04-27T00:15:22.858Z,101862.00
2023-04-27T00:18:52.037Z,101860.45
2023-04-27T00:22:21.405Z,101862.92
2023-04-27T00:25:40.988Z,101861.38
2023-04-27T00:28:52.912Z,101856.00
2023-04-27T00:32:10.827Z,101859.01
2023-04-27T00:35:30.680Z,101857.28
2023-04-27T00:38:52.890Z,101859.36
2023-04-27T00:42:22.022Z,101851.83
2023-04-27T00:45:42.185Z,101849.89
2023-04-27T00:49:11.944Z,101853.38
2023-04-27T00:52:41.375Z,101858.23
2023-04-27T00:56:10.614Z,101863.59
2023-04-27T00:59:39.818Z,101869.61
2023-04-27T01:03:11.042Z,101870.56
2023-04-27T01:06:34.861Z,101872.21
2023-04-27T01:09:54.610Z,101871.21
2023-04-27T01:13:25.248Z,101872.45
2023-04-27T01:16:54.958Z,101868.31
2023-04-27T01:20:24.944Z,101871.73
2023-04-27T01:23:55.220Z,101876.17
2023-04-27T01:27:13.585Z,101878.50
2023-04-27T01:30:43.284Z,101876.31
2023-04-27T01:34:12.425Z,101877.10
2023-04-27T01:37:43.281Z,101871.09
2023-04-27T01:41:04.354Z,101863.52
2023-04-27T01:44:33.621Z,101866.07
2023-04-27T01:48:02.995Z,101868.96
2023-04-27T01:51:33.445Z,101863.86
2023-04-27T01:55:03.125Z,101864.86
2023-04-27T01:58:32.840Z,101861.33
2023-04-27T02:02:03.955Z,101865.29
2023-04-27T02:05:33.457Z,101866.98
2023-04-27T02:09:02.922Z,101872.85
2023-04-27T02:12:32.759Z,101870.70
2023-04-27T02:16:02.311Z,101875.86
2023-04-27T02:19:25.995Z,101877.91
2023-04-27T02:22:55.176Z,101879.23
2023-04-27T02:26:24.695Z,101882.70
2023-04-27T02:29:55.877Z,101891.05
2023-04-27T02:33:25.735Z,101891.38
2023-04-27T02:36:55.254Z,101897.66
2023-04-27T02:40:15.762Z,101900.45
2023-04-27T02:43:45.083Z,101905.30
2023-04-27T02:46:51.431Z,101909.27
2023-04-27T02:50:21.015Z,101910.62
2023-04-27T02:53:49.936Z,101914.60
2023-04-27T02:57:19.584Z,101917.86
2023-04-27T03:00:49.529Z,101924.58
2023-04-27T03:04:20.118Z,101923.85
2023-04-27T03:07:49.165Z,101918.64
2023-04-27T03:11:18.592Z,101918.86
2023-04-27T03:14:41.372Z,101913.83
2023-04-27T03:18:10.655Z,101915.77
2023-04-27T03:21:40.167Z,101923.77
2023-04-27T03:25:10.901Z,101923.06
2023-04-27T03:28:41.326Z,101920.06
2023-04-27T03:32:10.819Z,101928.16
2023-04-27T03:35:40.254Z,101933.34
2023-04-27T03:39:10.923Z,101941.46
2023-04-27T03:42:39.415Z,101949.44
2023-04-27T03:46:09.175Z,101950.98
2023-04-27T03:49:39.685Z,101947.78
2023-04-27T03:53:08.856Z,101951.40
2023-04-27T03:56:41.061Z,101958.65
2023-04-27T04:00:13.312Z,101955.48
2023-04-27T04:03:42.707Z,101965.15
2023-04-27T04:07:12.247Z,101975.47
2023-04-27T04:10:42.028Z,101973.95
2023-04-27T04:14:12.409Z,101975.22
2023-04-27T04:17:41.899Z,101979.77
2023-04-27T04:21:11.565Z,101981.34
2023-04-27T04:24:41.672Z,101988.80
2023-04-27T04:28:10.798Z,101988.84
2023-04-27T04:31:40.198Z,101990.82
2023-04-27T04:35:10.250Z,101992.46
2023-04-27T04:38:39.308Z,101982.79
2023-04-27T04:42:08.468Z,101982.66
2023-04-27T04:45:37.667Z,101976.98
2023-04-27T04:49:06.878Z,101982.28
2023-04-27T04:52:37.389Z,101985.14
2023-04-27T04:56:06.869Z,101983.81
2023-04-27T04:59:35.983Z,101987.72
2023-04-27T05:02:58.116Z,101994.41
2023-04-27T05:06:27.644Z,101994.67
2023-04-27T05:09:56.975Z,101991.59
2023-04-27T05:13:26.041Z,101994.58
2023-04-27T05:16:55.705Z,101992.94
2023-04-27T05:20:26.548Z,101979.67
2023-04-27T05:23:54.748Z,101977.51
2023-04-27T05:27:24.481Z,101971.19
2023-04-27T05:30:53.766Z,101966.60
2023-04-27T05:34:23.005Z,101961.51
2023-04-27T05:37:51.961Z,101964.75
2023-04-27T05:41:14.120Z,101970.96
2023-04-27T05:44:43.417Z,101974.55
2023-04-27T05:48:11.497Z,101978.73
2023-04-27T05:51:40.965Z,101976.95
2023-04-27T05:55:10.531Z,101978.28
2023-04-27T05:58:40.067Z,101977.53
2023-04-27T06:02:00.341Z,101972.59
2023-04-27T06:05:29.738Z,101975.62
2023-04-27T06:08:59.196Z,101973.64
2023-04-27T06:12:28.625Z,101977.71
2023-04-27T06:15:58.386Z,101982.52
2023-04-27T06:19:28.991Z,101984.03
2023-04-27T06:23:01.318Z,101981.14
2023-04-27T06:26:30.597Z,101988.17
2023-04-27T06:29:59.955Z,101987.55
2023-04-27T06:33:29.430Z,101988.14
2023-04-27T06:36:48.789Z,101990.88
2023-04-27T06:40:18.374Z,101996.27
2023-04-27T06:43:47.598Z,101996.59
2023-04-27T06:47:17.182Z,102002.25
2023-04-27T06:50:47.287Z,101999.25
2023-04-27T06:54:16.869Z,102002.17
2023-04-27T06:57:46.148Z,102002.19
2023-04-27T07:01:16.204Z,102003.77
2023-04-27T07:04:46.164Z,102008.77
2023-04-27T07:08:15.516Z,102014.95
2023-04-27T07:11:43.593Z,102010.71
2023-04-27T07:15:13.095Z,102007.73
2023-04-27T07:18:43.664Z,102000.52
2023-04-27T07:22:03.122Z,102001.47
2023-04-27T07:25:32.528Z,102007.48
2023-04-27T07:29:08.303Z,102011.91
2023-04-27T07:32:43.834Z,102022.27
2023-04-27T07:36:13.116Z,102026.25
2023-04-27T07:39:42.352Z,102029.38
2023-04-27T07:43:12.174Z,102034.90
2023-04-27T07:46:41.465Z,102037.09
2023-04-27T07:50:12.101Z,102036.69
2023-04-27T07:53:41.445Z,102044.71
2023-04-27T07:57:03.898Z,102048.08
2023-04-27T08:00:33.075Z,102048.84
2023-04-27T08:03:56.697Z,102050.69
2023-04-27T08:07:26.227Z,102056.67
2023-04-27T08:10:55.837Z,102053.33
2023-04-27T08:14:25.034Z,102054.41
2023-04-27T08:17:55.186Z,102052.02
2023-04-27T08:21:24.214Z,102053.31
2023-04-27T08:24:53.689Z,102052.91
2023-04-27T08:28:22.954Z,102054.93
2023-04-27T08:31:52.982Z,102059.33
2023-04-27T08:35:23.922Z,102058.54
2023-04-27T08:38:53.661Z,102060.73
2023-04-27T08:42:25.444Z,102061.16
2023-04-27T08:45:54.551Z,102063.48
2023-04-27T08:49:24.630Z,102063.73
2023-04-27T08:52:57.118Z,102063.45
2023-04-27T08:56:26.588Z,102063.03
2023-04-27T08:59:56.294Z,102062.06
2023-04-27T09:03:18.986Z,102061.80
2023-04-27T09:06:51.484Z,102062.40
2023-04-27T09:10:26.773Z,102067.06
2023-04-27T09:14:01.985Z,102066.35
2023-04-27T09:17:38.814Z,102070.80
2023-04-27T09:21:08.214Z,102072.58
2023-04-27T09:24:37.498Z,102074.94
2023-04-27T09:28:06.923Z,102076.40
2023-04-27T09:31:36.587Z,102085.41
2023-04-27T09:35:06.153Z,102083.20
2023-04-27T09:38:35.515Z,102086.34
2023-04-27T09:41:55.340Z,102086.45
2023-04-27T09:45:24.761Z,102087.27
2023-04-27T09:48:53.956Z,102084.25
2023-04-27T09:52:23.277Z,102086.26
2023-04-27T09:55:43.588Z,102086.84
2023-04-27T09:59:20.245Z,102088.42
2023-04-27T10:02:56.456Z,102089.61
2023-04-27T10:06:30.218Z,102089.10
2023-04-27T10:09:59.270Z,102084.67
2023-04-27T10:13:38.052Z,102089.80
2023-04-27T10:17:22.294Z,102096.98
2023-04-27T10:20:50.608Z,102108.69
2023-04-27T10:24:29.305Z,102112.38
2023-04-27T10:27:58.780Z,102112.86
2023-04-27T10:31:36.893Z,102112.15
2023-04-27T10:35:12.177Z,102108.11
2023-04-27T10:38:24.852Z,102111.36
2023-04-27T10:42:01.174Z,102116.04
2023-04-27T10:45:31.702Z,102117.39
2023-04-27T10:49:02.435Z,102118.70
2023-04-27T10:52:31.948Z,102120.59
2023-04-27T10:56:01.391Z,102119.03
2023-04-27T10:59:31.683Z,102119.75
2023-04-27T11:02:56.555Z,102120.08
2023-04-27T11:06:26.104Z,102121.77
2023-04-27T11:09:55.660Z,102125.92
2023-04-27T11:13:19.263Z,102132.31
2023-04-27T11:16:51.614Z,102133.33
2023-04-27T11:20:13.716Z,102134.38
2023-04-27T11:23:46.102Z,102137.00
2023-04-27T11:27:15.297Z,102137.98
2023-04-27T11:30:44.694Z,102140.73
2023-04-27T11:34:16.215Z,102145.36
2023-04-27T11:37:45.638Z,102146.61
2023-04-27T11:41:18.527Z,102146.91
2023-04-27T11:44:47.910Z,102151.42
2023-04-27T11:48:20.489Z,102153.16
2023-04-27T11:51:49.781Z,102158.89
2023-04-27T11:55:19.223Z,102162.85
2023-04-27T11:58:49.751Z,102167.23
2023-04-27T12:02:19.025Z,102173.86
2023-04-27T12:05:48.327Z,102172.84
2023-04-27T12:09:07.160Z,102174.23
2023-04-27T12:12:35.456Z,102170.30
2023-04-27T12:16:04.978Z,102167.84
2023-04-27T12:19:34.450Z,102169.02
2023-04-27T12:23:07.623Z,102170.86
2023-04-27T12:26:37.225Z,102171.25
2023-04-27T12:29:57.162Z,102169.46
2023-04-27T12:33:26.287Z,102175.83
2023-04-27T12:36:55.523Z,102174.59
2023-04-27T12:40:25.052Z,102176.09
2023-04-27T12:43:38.266Z,102177.77
2023-04-27T12:47:07.472Z,102180.79
2023-04-27T12:50:20.558Z,102183.58
2023-04-27T12:53:49.556Z,102186.11
2023-04-27T12:56:59.041Z,102194.18
2023-04-27T13:00:28.634Z,102196.13
2023-04-27T13:03:58.405Z,102199.18
2023-04-27T13:07:27.902Z,102199.41
2023-04-27T13:10:57.325Z,102199.82
2023-04-27T13:14:29.496Z,102206.63
2023-04-27T13:17:52.959Z,102208.20
2023-04-27T13:21:22.891Z,102207.83
2023-04-27T13:24:52.118Z,102211.58
2023-04-27T13:28:22.304Z,102214.35
2023-04-27T13:31:52.993Z,102221.23
2023-04-27T13:35:22.195Z,102227.24
2023-04-27T13:38:53.345Z,102231.52
2023-04-27T13:42:22.610Z,102237.59
2023-04-27T13:45:52.081Z,102241.21
2023-04-27T13:49:21.394Z,102244.86
2023-04-27T13:52:31.109Z,102252.54
2023-04-27T13:55:46.856Z,102255.23
2023-04-27T13:59:17.129Z,102259.98
2023-04-27T14:02:46.481Z,102268.40
2023-04-27T14:06:16.151Z,102266.80
2023-04-27T14:09:45.351Z,102265.67
2023-04-27T14:13:14.696Z,102265.61
2023-04-27T14:16:37.918Z,102274.31
2023-04-27T14:20:01.067Z,102277.52
2023-04-27T14:23:30.230Z,102279.33
2023-04-27T14:26:50.929Z,102287.26
2023-04-27T14:30:21.203Z,102288.27
2023-04-27T14:33:50.380Z,102294.29
2023-04-27T14:37:20.080Z,102295.30
2023-04-27T14:40:32.555Z,102294.96
2023-04-27T14:43:55.255Z,102298.27
2023-04-27T14:47:23.929Z,102297.27
2023-04-27T14:50:53.433Z,102298.70
2023-04-27T14:54:23.792Z,102302.01
2023-04-27T14:57:52.294Z,102301.55
2023-04-27T15:01:23.048Z,102308.31
2023-04-27T15:04:53.699Z,102308.80
2023-04-27T15:08:23.066Z,102306.67
2023-04-27T15:11:52.467Z,102309.27
2023-04-27T15:15:22.196Z,102314.34
2023-04-27T15:18:51.262Z,102316.19
2023-04-27T15:22:21.092Z,102313.34
2023-04-27T15:25:50.564Z,102313.11
2023-04-27T15:29:20.924Z,102309.02
2023-04-27T15:32:50.541Z,102306.79
2023-04-27T15:36:20.053Z,102303.48
2023-04-27T15:39:49.619Z,102307.45
2023-04-27T15:43:19.151Z,102303.48
2023-04-27T15:46:48.419Z,102295.92
2023-04-27T15:50:18.060Z,102295.50
2023-04-27T15:53:48.154Z,102291.73
2023-04-27T15:57:17.680Z,102291.61
2023-04-27T16:00:48.341Z,102290.52
2023-04-27T16:04:11.624Z,102292.64
2023-04-27T16:07:31.621Z,102291.27
2023-04-27T16:10:54.277Z,102289.46
2023-04-27T16:14:23.532Z,102286.95
2023-04-27T16:17:36.802Z,102293.31
2023-04-27T16:21:06.000Z,102294.14
2023-04-27T16:24:34.543Z,102291.12
2023-04-27T16:28:03.739Z,102287.59
2023-04-27T16:31:33.883Z,102284.39
2023-04-27T16:34:46.427Z,102277.65
2023-04-27T16:38:16.199Z,102279.59
2023-04-27T16:41:30.098Z,102279.99
2023-04-27T16:44:59.534Z,102275.66
2023-04-27T16:48:28.929Z,102272.70
2023-04-27T16:51:51.658Z,102268.52
2023-04-27T16:55:13.649Z,102265.36
2023-04-27T16:58:44.478Z,102266.52
2023-04-27T17:02:20.937Z,102265.26
2023-04-27T17:05:54.808Z,102267.98
2023-04-27T17:09:24.402Z,102264.83
2023-04-27T17:12:54.001Z,102259.56
2023-04-27T17:16:23.544Z,102254.48
2023-04-27T17:19:53.123Z,102251.84
2023-04-27T17:23:22.465Z,102250.06
2023-04-27T17:26:51.883Z,102245.98
2023-04-27T17:30:21.147Z,102246.27
2023-04-27T17:33:50.472Z,102242.02
2023-04-27T17:37:20.044Z,102245.73
2023-04-27T17:40:50.859Z,102241.63
2023-04-27T17:44:20.140Z,102243.62
2023-04-27T17:47:33.412Z,102240.63
2023-04-27T17:51:02.716Z,102243.34
2023-04-27T17:54:31.869Z,102241.55
2023-04-27T17:57:54.380Z,102245.86
2023-04-27T18:01:24.377Z,102249.30
2023-04-27T18:04:53.795Z,102247.88
2023-04-27T18:08:13.403Z,102244.71
2023-04-27T18:11:36.344Z,102244.30
2023-04-27T18:15:07.642Z,102241.11
2023-04-27T18:18:39.063Z,102238.84
2023-04-27T18:22:08.979Z,102243.33
2023-04-27T18:25:38.573Z,102236.93
2023-04-27T18:29:07.935Z,102235.25
2023-04-27T18:32:28.572Z,102236.48
2023-04-27T18:35:58.674Z,102235.32
2023-04-27T18:39:19.285Z,102233.63
2023-04-27T18:42:49.144Z,102227.14
2023-04-27T18:46:18.677Z,102225.70
2023-04-27T18:49:38.036Z,102224.08
2023-04-27T18:53:07.494Z,102227.50
2023-04-27T18:56:36.644Z,102226.48
2023-04-27T19:00:06.478Z,102222.10
2023-04-27T19:03:37.235Z,102217.81
2023-04-27T19:07:06.658Z,102219.41
2023-04-27T19:10:36.053Z,102222.19
2023-04-27T19:14:05.244Z,102228.14
2023-04-27T19:17:34.591Z,102228.95
2023-04-27T19:21:04.025Z,102227.04
2023-04-27T19:24:33.174Z,102222.15
2023-04-27T19:28:02.469Z,102225.98
2023-04-27T19:31:32.752Z,102220.42
2023-04-27T19:35:02.261Z,102219.11
2023-04-27T19:38:31.354Z,102209.98
2023-04-27T19:41:53.731Z,102205.08
2023-04-27T19:45:23.058Z,102204.70
2023-04-27T19:48:52.789Z,102198.77
2023-04-27T19:52:22.378Z,102199.95
2023-04-27T19:55:54.544Z,102203.58
2023-04-27T19:59:25.071Z,102202.52
2023-04-27T20:02:54.663Z,102200.32
2023-04-27T20:06:07.309Z,102202.10
2023-04-27T20:09:36.637Z,102199.67
2023-04-27T20:13:05.918Z,102200.06
2023-04-27T20:16:15.291Z,102195.40
2023-04-27T20:19:25.538Z,102193.89
2023-04-27T20:22:54.670Z,102190.65
2023-04-27T20:26:24.186Z,102188.98
2023-04-27T20:29:54.454Z,102186.48
2023-04-27T20:33:23.817Z,102185.23
2023-04-27T20:36:53.184Z,102179.84
2023-04-27T20:40:18.037Z,102176.41
2023-04-27T20:43:47.573Z,102177.15
2023-04-27T20:47:06.971Z,102175.98
2023-04-27T20:50:36.303Z,102172.73
2023-04-27T20:53:59.705Z,102166.31
2023-04-27T20:57:19.798Z,102158.83
2023-04-27T21:00:33.281Z,102159.63
2023-04-27T21:04:03.765Z,102157.05
2023-04-27T21:07:33.307Z,102153.27
2023-04-27T21:11:02.598Z,102149.62
2023-04-27T21:14:31.888Z,102141.63
2023-04-27T21:17:33.053Z,102138.88
2023-04-27T21:20:46.812Z,102137.27
2023-04-27T21:24:15.934Z,102131.16
2023-04-27T21:27:45.436Z,102126.20
2023-04-27T21:31:03.737Z,102116.14
2023-04-27T21:34:33.303Z,102110.05
2023-04-27T21:38:02.414Z,102107.73
2023-04-27T21:41:32.034Z,102095.44
2023-04-27T21:45:01.307Z,102095.17
2023-04-27T21:48:30.869Z,102098.60
2023-04-27T21:51:41.393Z,102095.63
2023-04-27T21:55:11.044Z,102090.85
2023-04-27T21:58:40.311Z,102090.26
2023-04-27T22:02:09.663Z,102090.55
2023-04-27T22:05:19.739Z,102089.91
2023-04-27T22:08:49.332Z,102085.41
2023-04-27T22:11:59.171Z,102077.05
2023-04-27T22:15:28.383Z,102075.48
2023-04-27T22:18:57.526Z,102068.20
2023-04-27T22:22:26.810Z,102060.77
2023-04-27T22:25:56.159Z,102060.64
2023-04-27T22:29:25.501Z,102053.41
2023-04-27T22:32:55.018Z,102051.74
2023-04-27T22:36:24.967Z,102049.20
2023-04-27T22:39:54.252Z,102046.23
2023-04-27T22:43:24.715Z,102042.20
2023-04-27T22:46:53.976Z,102038.55
2023-04-27T22:50:16.844Z,102031.21
2023-04-27T22:53:35.054Z,102030.55
2023-04-27T22:57:04.361Z,102025.52
2023-04-27T23:00:33.703Z,102013.70
2023-04-27T23:04:03.545Z,102013.23
2023-04-27T23:07:32.803Z,102007.35
2023-04-27T23:11:02.400Z,102000.42
2023-04-27T23:14:31.716Z,101998.39
2023-04-27T23:18:01.694Z,101994.28
2023-04-27T23:21:37.084Z,101980.34
2023-04-27T23:25:06.328Z,101980.02
2023-04-27T23:28:25.682Z,101978.71
2023-04-27T23:31:55.183Z,101972.83
2023-04-27T23:35:24.598Z,101969.27
2023-04-27T23:38:55.179Z,101970.59
2023-04-27T23:42:24.477Z,101964.36
2023-04-27T23:45:46.906Z,101966.52
2023-04-27T23:49:08.927Z,101968.15
2023-04-27T23:52:38.180Z,101963.30
2023-04-27T23:56:07.447Z,101964.24
2023-04-27T23:59:36.658Z,101960.60
